Time;durP1;ratioP1;P1;durP2;ratioP2;P2;SDS_P1;SDS_P2;PMS_P1;PMS_P2;Temp;Humidity;BMP_temperature;BMP_pressure;BME280_temperature;BME280_humidity;BME280_pressure;Samples;Min_cycle;Max_cycle;Signal;HPM_P1;HPM_P2
2021/11/29 00:00:01;;;;;;;0.30;0.30;;;3.00;96.40;;;;;;4955302;29;20509;-68
2021/11/29 00:02:27;;;;;;;0.30;0.30;;;2.80;96.30;;;;;;4955657;28;20171;-67
2021/11/29 00:04:53;;;;;;;0.30;0.30;;;2.80;96.50;;;;;;4955558;28;20187;-66
2021/11/29 00:07:18;;;;;;;0.30;0.30;;;2.90;96.50;;;;;;4954639;28;20209;-68
2021/11/29 00:09:44;;;;;;;0.30;0.30;;;3.00;96.40;;;;;;4955049;29;20179;-68
2021/11/29 00:12:10;;;;;;;0.40;0.40;;;3.10;96.50;;;;;;4955138;29;20198;-68
2021/11/29 00:14:36;;;;;;;0.40;0.40;;;3.10;96.40;;;;;;4955251;29;20175;-67
2021/11/29 00:17:02;;;;;;;2.08;1.98;;;3.20;96.40;;;;;;4955273;28;20233;-69
2021/11/29 00:19:27;;;;;;;0.30;0.30;;;3.20;96.30;;;;;;4955499;29;20262;-68
2021/11/29 00:21:53;;;;;;;0.30;0.30;;;3.10;96.10;;;;;;4954809;29;20679;-68
2021/11/29 00:24:19;;;;;;;0.30;0.30;;;3.10;96.10;;;;;;4954979;29;20171;-68
2021/11/29 00:26:44;;;;;;;0.40;0.40;;;3.00;96.10;;;;;;4954923;29;20203;-68
2021/11/29 00:29:10;;;;;;;0.30;0.30;;;3.00;96.20;;;;;;4954702;28;20179;-67
2021/11/29 00:31:36;;;;;;;0.30;0.30;;;3.00;96.30;;;;;;4954695;29;20255;-68
2021/11/29 00:34:01;;;;;;;0.30;0.30;;;3.10;96.30;;;;;;4955376;29;20180;-68
2021/11/29 00:36:27;;;;;;;0.30;0.30;;;3.10;96.20;;;;;;4955527;28;20186;-67
2021/11/29 00:38:53;;;;;;;0.30;0.30;;;3.10;96.30;;;;;;4958108;29;20230;-68
2021/11/29 00:41:18;;;;;;;0.30;0.30;;;3.10;96.30;;;;;;4958402;28;20214;-68
2021/11/29 00:43:44;;;;;;;0.30;0.30;;;3.20;96.40;;;;;;4958383;29;20625;-68
2021/11/29 00:46:10;;;;;;;0.40;0.40;;;3.20;96.30;;;;;;4957177;29;20666;-67
2021/11/29 00:48:35;;;;;;;0.37;0.37;;;3.20;96.10;;;;;;4957906;29;20263;-68
2021/11/29 00:51:01;;;;;;;0.40;0.40;;;3.10;96.40;;;;;;4958134;29;20331;-68
2021/11/29 00:53:27;;;;;;;0.30;0.30;;;3.10;96.00;;;;;;4958027;28;20173;-68
2021/11/29 00:55:53;;;;;;;0.30;0.30;;;3.10;96.10;;;;;;4958140;28;20656;-68
2021/11/29 00:58:18;;;;;;;0.40;0.40;;;3.10;96.10;;;;;;4957584;29;20667;-68
2021/11/29 01:00:44;;;;;;;0.30;0.30;;;3.10;96.10;;;;;;4957569;29;20262;-66
2021/11/29 01:03:10;;;;;;;0.40;0.40;;;3.10;96.20;;;;;;4958391;28;20180;-68
2021/11/29 01:05:35;;;;;;;0.30;0.30;;;3.10;96.10;;;;;;4957067;29;20215;-69
2021/11/29 01:08:02;;;;;;;0.30;0.30;;;3.00;96.00;;;;;;4957839;28;20230;-68
2021/11/29 01:10:30;;;;;;;0.30;0.30;;;3.00;96.20;;;;;;4957545;28;20214;-68
2021/11/29 01:12:56;;;;;;;0.30;0.30;;;3.00;96.20;;;;;;4958076;29;20171;-68
2021/11/29 01:15:27;;;;;;;0.30;0.30;;;3.00;96.10;;;;;;4958074;29;20194;-68
2021/11/29 01:17:53;;;;;;;0.30;0.30;;;2.90;96.20;;;;;;4957702;29;20222;-68
2021/11/29 01:20:18;;;;;;;0.30;0.30;;;2.90;96.30;;;;;;4957861;29;20222;-67
2021/11/29 01:22:46;;;;;;;0.30;0.30;;;2.70;96.30;;;;;;4957941;28;20179;-67
2021/11/29 01:25:13;;;;;;;0.40;0.40;;;2.60;96.70;;;;;;4957759;28;20179;-67
2021/11/29 01:27:39;;;;;;;0.35;0.35;;;2.60;96.80;;;;;;4957256;29;20253;-68
2021/11/29 01:30:06;;;;;;;0.40;0.40;;;2.60;96.70;;;;;;4957657;29;20246;-68
2021/11/29 01:32:32;;;;;;;0.30;0.30;;;2.60;96.70;;;;;;4957741;29;20217;-66
2021/11/29 01:34:58;;;;;;;0.30;0.30;;;2.60;96.60;;;;;;4957230;28;20517;-68
2021/11/29 01:37:24;;;;;;;0.33;0.33;;;2.60;96.50;;;;;;4957225;28;20187;-67
2021/11/29 01:39:49;;;;;;;0.30;0.30;;;2.70;96.50;;;;;;4957508;28;20180;-68
2021/11/29 01:42:15;;;;;;;0.40;0.40;;;2.60;96.20;;;;;;4957396;28;20522;-68
2021/11/29 01:44:41;;;;;;;0.40;0.40;;;2.60;95.90;;;;;;4957521;29;20175;-68
2021/11/29 01:47:07;;;;;;;0.30;0.30;;;2.60;95.60;;;;;;4957347;28;20199;-68
2021/11/29 01:49:33;;;;;;;0.30;0.30;;;2.60;95.30;;;;;;4955871;28;20511;-68
2021/11/29 01:51:59;;;;;;;0.30;0.30;;;2.50;95.10;;;;;;4957055;28;20796;-68
2021/11/29 01:54:25;;;;;;;0.30;0.30;;;2.30;94.80;;;;;;4955724;29;20643;-68
2021/11/29 01:56:51;;;;;;;0.40;0.40;;;2.30;94.80;;;;;;4957072;29;20194;-68
2021/11/29 01:59:17;;;;;;;0.40;0.40;;;2.20;94.80;;;;;;4956941;29;20183;-67
2021/11/29 02:01:43;;;;;;;0.30;0.30;;;2.00;94.80;;;;;;4957328;28;20198;-68
2021/11/29 02:04:12;;;;;;;0.32;0.32;;;1.90;94.80;;;;;;4956669;28;20410;-68
2021/11/29 02:06:38;;;;;;;0.30;0.30;;;2.00;94.90;;;;;;4956643;29;20204;-67
2021/11/29 02:09:07;;;;;;;0.30;0.30;;;2.10;94.80;;;;;;4956758;29;20193;-68
2021/11/29 02:11:33;;;;;;;0.40;0.40;;;2.10;94.40;;;;;;4956993;29;20195;-68
2021/11/29 02:14:00;;;;;;;0.30;0.30;;;2.20;94.70;;;;;;4957088;28;20552;-68
2021/11/29 02:16:28;;;;;;;0.30;0.30;;;2.10;94.40;;;;;;4955778;29;20175;-68
2021/11/29 02:18:54;;;;;;;0.30;0.30;;;2.10;94.30;;;;;;4956374;28;20179;-68
2021/11/29 02:21:22;;;;;;;0.35;0.35;;;2.00;94.00;;;;;;4956523;29;20218;-67
2021/11/29 02:23:57;;;;;;;0.32;0.32;;;1.90;93.80;;;;;;4956639;28;20170;-67
2021/11/29 02:26:28;;;;;;;0.30;0.30;;;1.90;93.90;;;;;;4955478;29;20196;-67
2021/11/29 02:29:00;;;;;;;0.32;0.32;;;1.80;93.80;;;;;;4956080;28;20167;-66
2021/11/29 02:31:33;;;;;;;0.30;0.30;;;1.80;94.10;;;;;;4956215;29;20191;-68
2021/11/29 02:34:05;;;;;;;0.35;0.35;;;1.70;93.80;;;;;;4954716;29;20166;-69
2021/11/29 02:36:31;;;;;;;0.30;0.30;;;1.80;94.10;;;;;;4956364;28;20226;-69
2021/11/29 02:38:56;;;;;;;0.30;0.30;;;1.80;93.90;;;;;;4955943;29;20201;-68
2021/11/29 02:41:22;;;;;;;0.40;0.40;;;1.70;93.90;;;;;;4953990;29;20233;-69
2021/11/29 02:43:48;;;;;;;0.30;0.30;;;1.80;94.10;;;;;;4955914;29;20213;-71
2021/11/29 02:46:14;;;;;;;0.60;0.40;;;1.80;98.50;;;;;;4955444;29;20198;-70
2021/11/29 02:48:44;;;;;;;0.30;0.30;;;1.80;93.80;;;;;;4954359;28;20550;-70
2021/11/29 02:51:24;;;;;;;0.30;0.30;;;1.80;94.00;;;;;;4955903;29;20191;-71
2021/11/29 02:53:52;;;;;;;0.30;0.30;;;1.80;93.90;;;;;;4951690;29;20724;-69
2021/11/29 02:56:18;;;;;;;0.40;0.40;;;1.80;97.30;;;;;;4954192;29;20267;-70
2021/11/29 02:58:43;;;;;;;0.40;0.40;;;1.80;94.00;;;;;;4954815;28;20750;-70
2021/11/29 03:01:09;;;;;;;0.30;0.30;;;1.90;94.00;;;;;;4954487;29;20209;-70
2021/11/29 03:03:48;;;;;;;0.35;0.35;;;1.60;94.20;;;;;;4955013;29;20222;-70
2021/11/29 03:06:14;;;;;;;0.40;0.40;;;2.60;95.00;;;;;;4954874;28;20213;-70
2021/11/29 03:08:40;;;;;;;0.30;0.30;;;1.60;94.00;;;;;;4954752;29;20180;-70
2021/11/29 03:11:06;;;;;;;0.30;0.30;;;1.60;93.80;;;;;;4955666;28;20244;-70
2021/11/29 03:13:32;;;;;;;0.40;0.40;;;1.40;93.90;;;;;;4955757;29;20177;-70
2021/11/29 03:15:57;;;;;;;0.40;0.40;;;1.30;93.80;;;;;;4954633;29;20414;-71
2021/11/29 03:18:38;;;;;;;0.37;0.37;;;1.30;93.90;;;;;;4955349;29;20642;-71
2021/11/29 03:21:06;;;;;;;0.30;0.30;;;1.20;93.90;;;;;;4955602;28;20182;-71
2021/11/29 03:23:32;;;;;;;0.40;0.40;;;1.30;93.80;;;;;;4955494;28;20204;-70
2021/11/29 03:25:59;;;;;;;0.35;0.35;;;1.30;93.60;;;;;;4955533;28;20623;-70
2021/11/29 03:28:25;;;;;;;0.40;0.40;;;1.30;93.70;;;;;;4955060;29;20624;-70
2021/11/29 03:30:52;;;;;;;0.30;0.30;;;1.30;93.60;;;;;;4955721;28;20273;-73
2021/11/29 03:33:17;;;;;;;0.30;0.30;;;1.20;93.60;;;;;;4954331;29;20638;-66
2021/11/29 03:35:43;;;;;;;0.30;0.30;;;1.10;94.00;;;;;;4955289;29;20181;-67
2021/11/29 03:38:09;;;;;;;0.43;0.43;;;1.20;94.30;;;;;;4955218;28;20309;-68
2021/11/29 03:40:37;;;;;;;0.30;0.30;;;1.20;93.80;;;;;;4955225;28;20343;-67
2021/11/29 03:43:04;;;;;;;0.30;0.30;;;1.20;93.70;;;;;;4955562;29;20308;-67
2021/11/29 03:45:30;;;;;;;0.30;0.30;;;1.40;93.90;;;;;;4954438;29;20701;-67
2021/11/29 03:47:55;;;;;;;0.30;0.30;;;1.50;93.80;;;;;;4954009;29;20305;-67
2021/11/29 03:50:21;;;;;;;0.30;0.30;;;1.70;94.00;;;;;;4955156;29;20193;-67
2021/11/29 03:52:47;;;;;;;0.30;0.30;;;1.80;93.60;;;;;;4953995;29;20645;-67
2021/11/29 03:55:12;;;;;;;0.40;0.40;;;1.80;93.40;;;;;;4955384;28;20167;-67
2021/11/29 03:57:38;;;;;;;0.30;0.30;;;1.90;93.50;;;;;;4955148;29;20665;-67
2021/11/29 04:00:06;;;;;;;0.40;0.40;;;1.90;93.30;;;;;;4955127;28;20198;-67
2021/11/29 04:02:32;;;;;;;0.30;0.30;;;2.00;93.20;;;;;;4955677;29;20177;-67
2021/11/29 04:04:57;;;;;;;0.30;0.30;;;2.00;92.90;;;;;;4955001;29;20261;-67
2021/11/29 04:07:23;;;;;;;0.30;0.30;;;1.70;92.60;;;;;;4954834;29;20777;-67
2021/11/29 04:09:49;;;;;;;0.30;0.30;;;1.70;93.00;;;;;;4954027;29;20746;-67
2021/11/29 04:12:14;;;;;;;0.30;0.30;;;1.80;93.00;;;;;;4957181;28;20242;-67
2021/11/29 04:14:40;;;;;;;0.57;0.57;;;1.70;93.10;;;;;;4958854;29;20657;-67
2021/11/29 04:17:06;;;;;;;0.40;0.40;;;1.70;93.00;;;;;;4958712;29;20175;-67
2021/11/29 04:19:35;;;;;;;0.30;0.30;;;1.80;93.30;;;;;;4958829;28;20261;-67
2021/11/29 04:22:00;;;;;;;0.30;0.30;;;1.90;93.20;;;;;;4958725;28;20190;-67
2021/11/29 04:24:26;;;;;;;0.30;0.30;;;2.00;93.00;;;;;;4958734;29;20180;-67
2021/11/29 04:26:53;;;;;;;0.30;0.30;;;1.90;92.80;;;;;;4958802;28;20210;-67
2021/11/29 04:29:25;;;;;;;0.30;0.30;;;1.80;92.80;;;;;;4958741;29;20167;-67
2021/11/29 04:31:50;;;;;;;0.30;0.30;;;1.70;92.80;;;;;;4958955;29;20194;-67
2021/11/29 04:34:16;;;;;;;0.40;0.40;;;1.70;93.30;;;;;;4958397;29;20549;-67
2021/11/29 04:36:43;;;;;;;0.30;0.30;;;1.70;93.50;;;;;;4958611;29;20167;-67
2021/11/29 04:39:08;;;;;;;0.32;0.32;;;1.70;93.40;;;;;;4958385;28;20254;-67
2021/11/29 04:41:34;;;;;;;0.30;0.30;;;1.70;93.30;;;;;;4957330;29;20247;-67
2021/11/29 04:44:00;;;;;;;0.30;0.30;;;1.70;93.50;;;;;;4958052;29;20210;-67
2021/11/29 04:46:25;;;;;;;0.30;0.30;;;1.70;93.40;;;;;;4958557;29;20203;-67
2021/11/29 04:48:51;;;;;;;0.30;0.30;;;1.60;93.20;;;;;;4957889;28;20568;-67
2021/11/29 04:51:16;;;;;;;0.40;0.40;;;1.60;93.30;;;;;;4958167;28;20277;-67
2021/11/29 04:53:42;;;;;;;0.40;0.40;;;1.70;93.30;;;;;;4958242;29;20227;-67
2021/11/29 04:56:08;;;;;;;0.40;0.40;;;1.70;93.20;;;;;;4958342;29;20175;-67
2021/11/29 04:58:34;;;;;;;0.30;0.30;;;1.70;93.00;;;;;;4957711;29;20631;-67
2021/11/29 05:01:00;;;;;;;0.30;0.30;;;1.70;93.20;;;;;;4957725;28;20262;-67
2021/11/29 05:03:26;;;;;;;0.40;0.40;;;1.70;93.20;;;;;;4957873;28;20191;-67
2021/11/29 05:05:51;;;;;;;0.30;0.30;;;1.70;93.10;;;;;;4957928;29;20447;-67
2021/11/29 05:08:17;;;;;;;0.40;0.40;;;1.80;92.90;;;;;;4957578;28;20168;-67
2021/11/29 05:10:43;;;;;;;0.30;0.30;;;1.70;92.90;;;;;;4957490;29;20456;-67
2021/11/29 05:13:09;;;;;;;0.30;0.30;;;1.70;93.40;;;;;;4958113;28;20177;-67
2021/11/29 05:15:35;;;;;;;0.30;0.30;;;1.60;93.90;;;;;;4958176;28;20170;-67
2021/11/29 05:18:01;;;;;;;0.30;0.30;;;1.70;94.60;;;;;;4957409;29;20179;-67
2021/11/29 05:20:27;;;;;;;0.30;0.30;;;1.70;94.20;;;;;;4957569;29;20532;-67
2021/11/29 05:22:52;;;;;;;0.30;0.30;;;1.70;94.10;;;;;;4957536;28;20261;-67
2021/11/29 05:25:19;;;;;;;0.40;0.40;;;1.70;94.20;;;;;;4957446;28;20406;-67
2021/11/29 05:27:46;;;;;;;0.30;0.30;;;1.80;94.30;;;;;;4957421;29;20198;-67
2021/11/29 05:30:12;;;;;;;0.40;0.40;;;1.80;94.40;;;;;;4957852;29;20196;-67
2021/11/29 05:32:37;;;;;;;0.30;0.30;;;1.90;94.60;;;;;;4957743;29;20172;-67
2021/11/29 05:35:04;;;;;;;0.30;0.30;;;1.90;94.40;;;;;;4957397;28;20169;-67
2021/11/29 05:37:29;;;;;;;0.30;0.30;;;1.90;94.30;;;;;;4957313;29;20552;-67
2021/11/29 05:39:55;;;;;;;0.30;0.30;;;2.00;94.50;;;;;;4956092;29;20181;-67
2021/11/29 05:42:21;;;;;;;0.30;0.30;;;2.00;94.50;;;;;;4956924;29;20534;-67
2021/11/29 05:44:50;;;;;;;0.40;0.40;;;2.10;94.40;;;;;;4957129;29;20193;-67
2021/11/29 05:47:17;;;;;;;0.30;0.30;;;2.10;94.40;;;;;;4955237;28;20205;-67
2021/11/29 05:49:43;;;;;;;0.30;0.30;;;2.10;94.40;;;;;;4957171;29;20226;-67
2021/11/29 05:52:08;;;;;;;0.40;0.40;;;2.10;94.40;;;;;;4957268;29;20580;-67
2021/11/29 05:54:34;;;;;;;0.40;0.40;;;2.10;94.40;;;;;;4957119;29;20646;-67
2021/11/29 05:57:00;;;;;;;0.40;0.40;;;2.10;94.50;;;;;;4956923;29;20696;-67
2021/11/29 05:59:26;;;;;;;0.30;0.30;;;2.10;94.50;;;;;;4956581;28;20191;-67
2021/11/29 06:01:52;;;;;;;0.40;0.40;;;2.10;94.50;;;;;;4956744;28;20510;-67
2021/11/29 06:04:17;;;;;;;0.30;0.30;;;2.10;94.50;;;;;;4956920;28;20416;-67
2021/11/29 06:06:43;;;;;;;0.30;0.30;;;2.20;94.60;;;;;;4956584;29;20204;-67
2021/11/29 06:09:09;;;;;;;0.30;0.30;;;2.20;94.60;;;;;;4955623;29;20417;-67
2021/11/29 06:11:35;;;;;;;0.40;0.40;;;2.20;94.60;;;;;;4956514;29;20856;-67
2021/11/29 06:14:01;;;;;;;0.30;0.30;;;2.20;94.60;;;;;;4956666;28;20620;-67
2021/11/29 06:16:26;;;;;;;0.30;0.30;;;2.10;94.50;;;;;;4956562;29;20209;-67
2021/11/29 06:18:52;;;;;;;0.30;0.30;;;2.00;94.50;;;;;;4956450;29;20179;-67
2021/11/29 06:21:18;;;;;;;0.30;0.30;;;1.80;94.60;;;;;;4956662;29;20197;-67
2021/11/29 06:23:43;;;;;;;0.37;0.37;;;1.70;94.90;;;;;;4956454;28;20268;-67
2021/11/29 06:26:09;;;;;;;0.30;0.30;;;1.70;95.10;;;;;;4956709;29;20604;-67
2021/11/29 06:28:35;;;;;;;0.40;0.40;;;1.70;95.40;;;;;;4954825;29;20685;-67
2021/11/29 06:31:01;;;;;;;0.40;0.40;;;1.60;95.40;;;;;;4955918;29;20708;-67
2021/11/29 06:33:26;;;;;;;0.30;0.30;;;1.70;95.60;;;;;;4955488;28;20420;-67
2021/11/29 06:35:58;;;;;;;0.40;0.40;;;1.90;95.70;;;;;;4955865;29;20406;-67
2021/11/29 06:38:26;;;;;;;0.30;0.30;;;2.00;95.50;;;;;;4955992;29;20170;-67
2021/11/29 06:40:53;;;;;;;0.30;0.30;;;2.00;95.40;;;;;;4955308;29;20582;-68
2021/11/29 06:43:21;;;;;;;0.30;0.30;;;1.90;95.30;;;;;;4955988;29;20677;-67
2021/11/29 06:45:47;;;;;;;0.30;0.30;;;1.90;95.50;;;;;;4955877;29;20174;-67
2021/11/29 06:48:13;;;;;;;0.30;0.30;;;1.80;95.40;;;;;;4955972;29;20210;-68
2021/11/29 06:50:39;;;;;;;0.40;0.40;;;1.80;95.60;;;;;;4955712;28;20225;-67
2021/11/29 06:53:04;;;;;;;0.40;0.40;;;1.80;95.80;;;;;;4956459;29;20413;-68
2021/11/29 06:55:32;;;;;;;0.30;0.30;;;1.80;95.90;;;;;;4956073;29;20413;-67
2021/11/29 06:57:58;;;;;;;0.30;0.30;;;1.90;96.00;;;;;;4955547;28;20417;-67
2021/11/29 07:00:24;;;;;;;0.30;0.30;;;1.60;95.90;;;;;;4955663;29;20290;-67
2021/11/29 07:02:51;;;;;;;0.40;0.40;;;1.50;96.10;;;;;;4955620;28;20200;-67
2021/11/29 07:05:17;;;;;;;0.30;0.30;;;1.40;96.40;;;;;;4955663;29;20204;-68
2021/11/29 07:07:44;;;;;;;0.30;0.30;;;1.50;96.30;;;;;;4955769;29;20267;-67
2021/11/29 07:10:11;;;;;;;0.30;0.30;;;1.70;96.40;;;;;;4954458;29;20948;-67
2021/11/29 07:12:39;;;;;;;0.40;0.40;;;1.80;96.30;;;;;;4955731;29;20178;-67
2021/11/29 07:15:08;;;;;;;0.30;0.30;;;1.80;96.20;;;;;;4955710;29;20249;-69
2021/11/29 07:17:34;;;;;;;0.40;0.40;;;1.70;96.20;;;;;;4955632;28;20174;-68
2021/11/29 07:20:00;;;;;;;0.30;0.30;;;1.80;96.40;;;;;;4955750;28;20178;-68
2021/11/29 07:22:26;;;;;;;0.30;0.30;;;1.90;96.30;;;;;;4953941;28;20497;-68
2021/11/29 07:24:54;;;;;;;0.30;0.30;;;1.90;96.10;;;;;;4955954;29;20334;-67
2021/11/29 07:27:22;;;;;;;0.30;0.30;;;1.80;99.90;;;;;;4955370;28;20248;-67
2021/11/29 07:29:48;;;;;;;0.30;0.30;;;2.10;96.00;;;;;;4955606;29;20175;-69
2021/11/29 07:32:13;;;;;;;0.30;0.30;;;2.10;95.70;;;;;;4954447;29;20642;-67
2021/11/29 07:34:39;;;;;;;0.30;0.30;;;1.90;95.50;;;;;;4955792;28;20870;-67
2021/11/29 07:37:05;;;;;;;0.40;0.40;;;1.90;99.90;;;;;;4955666;29;20181;-67
2021/11/29 07:39:30;;;;;;;0.30;0.30;;;1.80;95.80;;;;;;4955444;29;20174;-67
2021/11/29 07:41:58;;;;;;;0.30;0.30;;;1.90;96.10;;;;;;4955341;29;20258;-66
2021/11/29 07:44:24;;;;;;;0.40;0.40;;;2.00;96.00;;;;;;4955519;29;20227;-67
2021/11/29 07:46:50;;;;;;;0.40;0.40;;;2.10;96.00;;;;;;4958498;28;20650;-67
2021/11/29 07:49:16;;;;;;;0.30;0.30;;;2.20;96.00;;;;;;4958276;29;20221;-66
2021/11/29 07:51:41;;;;;;;0.40;0.40;;;2.30;96.00;;;;;;4959631;29;20428;-67
2021/11/29 07:54:07;;;;;;;0.40;0.40;;;2.30;95.80;;;;;;4957624;29;20187;-67
2021/11/29 07:56:33;;;;;;;0.30;0.30;;;2.40;95.70;;;;;;4958500;29;20174;-66
2021/11/29 07:58:58;;;;;;;0.30;0.30;;;2.50;95.60;;;;;;4957990;29;20410;-67
2021/11/29 08:01:24;;;;;;;0.87;0.87;;;2.60;95.50;;;;;;4959194;28;20217;-66
2021/11/29 08:03:50;;;;;;;0.40;0.40;;;2.50;95.40;;;;;;4959378;28;20179;-67
2021/11/29 08:06:15;;;;;;;0.30;0.30;;;2.50;95.30;;;;;;4959244;29;20205;-67
2021/11/29 08:08:43;;;;;;;0.30;0.30;;;2.40;95.30;;;;;;4958739;29;20203;-67
2021/11/29 08:11:09;;;;;;;0.30;0.30;;;2.30;95.00;;;;;;4958841;28;20194;-67
2021/11/29 08:13:35;;;;;;;0.30;0.30;;;2.20;94.40;;;;;;4958982;29;20210;-67
2021/11/29 08:16:01;;;;;;;0.30;0.30;;;2.30;94.70;;;;;;4957378;28;20257;-67
2021/11/29 08:18:27;;;;;;;0.30;0.30;;;2.30;94.40;;;;;;4958479;29;20419;-67
2021/11/29 08:20:53;;;;;;;0.30;0.30;;;2.30;93.90;;;;;;4957564;29;20218;-67
2021/11/29 08:23:18;;;;;;;0.30;0.30;;;2.40;93.90;;;;;;4957252;29;20210;-69
2021/11/29 08:25:44;;;;;;;0.30;0.30;;;2.30;93.30;;;;;;4958685;28;20168;-68
2021/11/29 08:28:11;;;;;;;0.30;0.30;;;2.50;93.30;;;;;;4958226;29;20860;-68
2021/11/29 08:30:38;;;;;;;0.30;0.30;;;2.50;93.00;;;;;;4957497;29;20191;-68
2021/11/29 08:33:03;;;;;;;0.30;0.30;;;2.60;93.00;;;;;;4958897;28;20175;-67
2021/11/29 08:35:29;;;;;;;0.40;0.40;;;2.60;93.00;;;;;;4958703;29;20581;-67
2021/11/29 08:37:58;;;;;;;0.40;0.40;;;2.80;92.80;;;;;;4958319;29;20179;-67
2021/11/29 08:40:30;;;;;;;0.30;0.30;;;2.90;92.70;;;;;;4958344;29;20191;-66
2021/11/29 08:42:59;;;;;;;0.30;0.30;;;3.20;99.90;;;;;;4958666;29;20650;-67
2021/11/29 08:45:25;;;;;;;0.30;0.30;;;3.00;92.50;;;;;;4958672;29;20175;-67
2021/11/29 08:47:52;;;;;;;0.30;0.30;;;3.10;92.10;;;;;;4957469;28;20263;-67
2021/11/29 08:50:18;;;;;;;0.40;0.40;;;3.20;91.90;;;;;;4957532;28;20193;-67
2021/11/29 08:52:44;;;;;;;0.30;0.30;;;3.50;91.60;;;;;;4958149;28;20176;-68
2021/11/29 08:55:11;;;;;;;0.40;0.40;;;3.70;91.00;;;;;;4958325;29;20448;-67
2021/11/29 08:57:38;;;;;;;0.35;0.35;;;4.00;90.70;;;;;;4956249;28;20419;-68
2021/11/29 09:00:10;;;;;;;0.30;0.30;;;4.20;90.30;;;;;;4957447;29;20275;-67
2021/11/29 09:02:36;;;;;;;0.40;0.40;;;4.20;99.90;;;;;;4956774;29;20640;-67
2021/11/29 09:05:03;;;;;;;0.30;0.30;;;4.30;88.60;;;;;;4957516;28;20178;-67
2021/11/29 09:07:29;;;;;;;0.47;0.47;;;4.50;88.40;;;;;;4956434;29;20696;-67
2021/11/29 09:09:55;;;;;;;0.40;0.40;;;4.60;85.90;;;;;;4957304;29;20184;-67
2021/11/29 09:12:21;;;;;;;0.83;0.83;;;4.80;85.50;;;;;;4958012;29;20421;-67
2021/11/29 09:14:46;;;;;;;0.40;0.40;;;5.50;84.20;;;;;;4956170;29;20166;-67
2021/11/29 09:17:12;;;;;;;0.30;0.30;;;5.40;95.60;;;;;;4957946;29;20885;-69
2021/11/29 09:19:40;;;;;;;0.33;0.33;;;5.30;82.00;;;;;;4957752;29;20529;-69
2021/11/29 09:22:05;;;;;;;0.35;0.35;;;4.90;82.40;;;;;;4957324;29;20292;-68
2021/11/29 09:24:31;;;;;;;0.30;0.30;;;4.60;81.90;;;;;;4957348;28;20274;-73
2021/11/29 09:26:57;;;;;;;0.30;0.30;;;4.20;83.10;;;;;;4956364;29;20251;-69
2021/11/29 09:29:23;;;;;;;0.30;0.30;;;4.00;84.70;;;;;;4957635;29;20162;-68
2021/11/29 09:31:49;;;;;;;0.30;0.30;;;4.30;86.00;;;;;;4957265;29;20555;-69
2021/11/29 09:34:15;;;;;;;0.40;0.40;;;4.70;85.40;;;;;;4956077;29;20911;-68
2021/11/29 09:36:41;;;;;;;0.40;0.40;;;6.60;98.70;;;;;;4957345;29;20221;-69
2021/11/29 09:39:07;;;;;;;0.30;0.30;;;7.20;82.40;;;;;;4957366;29;20262;-69
2021/11/29 09:41:34;;;;;;;0.40;0.40;;;7.60;77.00;;;;;;4955769;29;20608;-68
2021/11/29 09:44:01;;;;;;;0.40;0.40;;;8.70;73.00;;;;;;4957573;28;20418;-70
2021/11/29 09:46:27;;;;;;;0.35;0.35;;;9.00;93.20;;;;;;4957582;28;20272;-78
2021/11/29 09:48:52;;;;;;;0.40;0.40;;;8.00;92.40;;;;;;4956846;29;20618;-70
2021/11/29 09:51:18;;;;;;;0.30;0.30;;;7.50;94.70;;;;;;4955705;29;20201;-70
2021/11/29 09:53:44;;;;;;;0.40;0.40;;;7.60;76.50;;;;;;4957212;29;20161;-69
2021/11/29 09:56:10;;;;;;;0.40;0.40;;;8.10;70.60;;;;;;4956022;29;20187;-69
2021/11/29 09:58:36;;;;;;;0.37;0.37;;;9.10;66.70;;;;;;4956712;28;20660;-67
2021/11/29 10:01:05;;;;;;;0.40;0.40;;;10.70;71.80;;;;;;4955201;28;20212;-71
2021/11/29 10:03:32;;;;;;;0.30;0.30;;;10.30;88.20;;;;;;4956744;29;20170;-69
2021/11/29 10:05:59;;;;;;;0.30;0.30;;;10.10;56.90;;;;;;4956882;28;20260;-68
2021/11/29 10:08:29;;;;;;;0.40;0.40;;;8.10;83.10;;;;;;4954732;28;20634;-68
2021/11/29 10:10:58;;;;;;;0.40;0.40;;;7.40;92.40;;;;;;4955874;29;20194;-68
2021/11/29 10:13:25;;;;;;;0.52;0.52;;;7.30;63.90;;;;;;4956819;28;20204;-68
2021/11/29 10:15:51;;;;;;;0.40;0.40;;;8.60;93.00;;;;;;4956490;28;20171;-68
2021/11/29 10:18:21;;;;;;;0.40;0.40;;;9.30;62.20;;;;;;4955066;29;20222;-68
2021/11/29 10:20:52;;;;;;;0.30;0.30;;;9.50;63.20;;;;;;4956380;28;20195;-68
2021/11/29 10:23:47;;;;;;;0.30;0.30;;;9.60;58.00;;;;;;4957140;28;20160;-68
2021/11/29 10:26:21;;;;;;;0.30;0.30;;;10.20;72.30;;;;;;4954583;29;20692;-68
2021/11/29 10:28:56;;;;;;;0.30;0.30;;;10.00;72.90;;;;;;4955441;29;20206;-68
2021/11/29 10:31:31;;;;;;;0.30;0.30;;;9.80;55.60;;;;;;4953834;28;20196;-68
2021/11/29 10:34:09;;;;;;;0.40;0.40;;;9.20;56.00;;;;;;4955738;28;20171;-68
2021/11/29 10:36:50;;;;;;;0.40;0.40;;;8.50;57.70;;;;;;4956427;29;20271;-68
2021/11/29 10:39:21;;;;;;;0.30;0.30;;;7.70;60.30;;;;;;4955959;29;20181;-68
2021/11/29 10:41:50;;;;;;;0.35;0.35;;;7.10;62.00;;;;;;4955089;29;20654;-68
2021/11/29 10:44:19;;;;;;;0.30;0.30;;;6.70;63.90;;;;;;4956492;28;20177;-68
2021/11/29 10:46:50;;;;;;;0.40;0.40;;;6.50;81.60;;;;;;4956237;28;20284;-68
2021/11/29 10:49:19;;;;;;;0.40;0.40;;;5.90;67.00;;;;;;4955869;29;20519;-68
2021/11/29 10:51:50;;;;;;;0.38;0.38;;;5.90;69.10;;;;;;4956059;28;20585;-68
2021/11/29 10:54:22;;;;;;;0.40;0.40;;;5.90;67.10;;;;;;4956177;29;20178;-68
2021/11/29 10:56:48;;;;;;;0.30;0.30;;;5.80;65.60;;;;;;4956004;28;20543;-68
2021/11/29 10:59:17;;;;;;;0.30;0.30;;;5.90;67.00;;;;;;4953931;29;20186;-69
2021/11/29 11:01:43;;;;;;;0.40;0.40;;;5.70;67.10;;;;;;4955735;29;20194;-69
2021/11/29 11:04:12;;;;;;;0.40;0.40;;;5.70;67.00;;;;;;4955836;29;20265;-69
2021/11/29 11:06:42;;;;;;;0.38;0.38;;;5.60;66.20;;;;;;4955591;28;20563;-69
2021/11/29 11:09:21;;;;;;;0.40;0.40;;;5.50;67.40;;;;;;4955665;29;20173;-69
2021/11/29 11:12:06;;;;;;;0.30;0.30;;;5.40;69.40;;;;;;4955477;28;20185;-69
2021/11/29 11:14:34;;;;;;;0.40;0.40;;;5.40;70.40;;;;;;4956037;28;20184;-69
2021/11/29 11:17:02;;;;;;;0.30;0.30;;;5.30;69.00;;;;;;4956898;28;20177;-69
2021/11/29 11:19:44;;;;;;;0.68;0.68;;;5.50;71.50;;;;;;4957203;29;20275;-68
2021/11/29 11:22:17;;;;;;;0.40;0.40;;;5.00;69.90;;;;;;4954386;29;20288;-69
2021/11/29 11:24:52;;;;;;;0.40;0.40;;;5.00;68.70;;;;;;4955513;29;20173;-68
2021/11/29 11:27:19;;;;;;;0.40;0.40;;;5.20;69.30;;;;;;4955535;28;20201;-68
2021/11/29 11:29:48;;;;;;;0.40;0.40;;;5.90;95.30;;;;;;4955818;29;20199;-69
2021/11/29 11:32:30;;;;;;;0.40;0.40;;;5.80;71.00;;;;;;4956118;29;20553;-69
2021/11/29 11:34:57;;;;;;;0.30;0.30;;;6.10;70.90;;;;;;4956685;29;20176;-69
2021/11/29 11:37:27;;;;;;;0.40;0.40;;;7.10;75.00;;;;;;4956356;29;20565;-68
2021/11/29 11:39:54;;;;;;;0.40;0.40;;;6.00;83.40;;;;;;4955820;28;20173;-68
2021/11/29 11:42:20;;;;;;;0.40;0.40;;;6.10;70.90;;;;;;4955029;29;20197;-69
2021/11/29 11:44:47;;;;;;;0.38;0.38;;;6.30;69.50;;;;;;4955703;29;20613;-69
2021/11/29 11:47:13;;;;;;;0.30;0.30;;;6.00;96.90;;;;;;4955468;28;20193;-69
2021/11/29 11:49:45;;;;;;;0.38;0.38;;;5.50;92.40;;;;;;4955190;29;20614;-69
2021/11/29 11:52:15;;;;;;;0.40;0.40;;;5.60;95.90;;;;;;4955304;28;20672;-69
2021/11/29 11:54:42;;;;;;;0.40;0.40;;;5.40;95.80;;;;;;4955395;29;20254;-68
2021/11/29 11:57:11;;;;;;;0.38;0.38;;;5.30;95.20;;;;;;4953689;29;20185;-68
2021/11/29 12:00:16;;;;;;;0.40;0.40;;;5.30;71.90;;;;;;4955501;28;20189;-68
2021/11/29 12:02:50;;;;;;;0.40;0.40;;;5.30;71.20;;;;;;4955093;28;20174;-69
2021/11/29 12:05:24;;;;;;;0.40;0.40;;;5.10;96.40;;;;;;4954906;29;20185;-69
2021/11/29 12:07:50;;;;;;;0.40;0.40;;;5.70;94.00;;;;;;4955201;28;20205;-69
2021/11/29 12:10:40;;;;;;;0.40;0.40;;;5.10;71.10;;;;;;4955072;29;20567;-68
2021/11/29 12:13:10;;;;;;;0.40;0.40;;;4.80;71.10;;;;;;4955334;29;20166;-68
2021/11/29 12:15:42;;;;;;;0.40;0.40;;;5.00;72.20;;;;;;4955298;29;20178;-68
2021/11/29 12:18:10;;;;;;;0.30;0.30;;;5.30;73.20;;;;;;4954971;29;20173;-68
2021/11/29 12:20:36;;;;;;;0.30;0.30;;;5.30;70.40;;;;;;4955187;28;20292;-69
2021/11/29 12:23:03;;;;;;;0.30;0.30;;;6.20;72.00;;;;;;4955193;28;20527;-68
2021/11/29 12:25:29;;;;;;;0.30;0.30;;;5.80;71.10;;;;;;4955096;28;20196;-69
2021/11/29 12:28:02;;;;;;;0.40;0.40;;;6.10;70.10;;;;;;4954686;28;20209;-69
2021/11/29 12:30:35;;;;;;;0.40;0.40;;;6.30;69.10;;;;;;4953590;29;20437;-69
2021/11/29 12:33:03;;;;;;;0.40;0.40;;;5.90;67.60;;;;;;4956510;28;20174;-68
2021/11/29 12:35:42;;;;;;;0.32;0.32;;;6.10;69.00;;;;;;4958534;29;20174;-69
2021/11/29 12:38:15;;;;;;;0.35;0.35;;;6.40;70.00;;;;;;4958151;28;20182;-68
2021/11/29 12:41:06;;;;;;;0.40;0.40;;;6.30;67.40;;;;;;4958345;28;20203;-68
2021/11/29 12:43:38;;;;;;;0.40;0.40;;;6.40;96.40;;;;;;4958899;28;20512;-69
2021/11/29 12:46:27;;;;;;;0.30;0.30;;;5.60;93.60;;;;;;4958404;28;20178;-69
2021/11/29 12:48:56;;;;;;;0.38;0.38;;;5.50;68.20;;;;;;4958334;29;20177;-69
2021/11/29 12:51:54;;;;;;;0.40;0.40;;;5.60;83.80;;;;;;4958492;28;20545;-69
2021/11/29 12:54:34;;;;;;;0.40;0.40;;;5.70;71.60;;;;;;4958353;28;20213;-69
2021/11/29 12:57:24;;;;;;;0.30;0.30;;;6.30;99.70;;;;;;4956969;29;20177;-68
2021/11/29 13:00:00;;;;;;;0.40;0.40;;;6.00;99.90;;;;;;4958182;28;20204;-69